Time;durP1;ratioP1;P1;durP2;ratioP2;P2;SDS_P1;SDS_P2;PMS_P1;PMS_P2;Temp;Humidity;BMP_temperature;BMP_pressure;BME280_temperature;BME280_humidity;BME280_pressure;Samples;Min_cycle;Max_cycle;Signal;HPM_P1;HPM_P2
2022/09/17 00:01:39;;;;;;;11.47;3.37;;;;;;;;;;5014196;28;20204;-67
2022/09/17 00:04:06;;;;;;;10.50;2.77;;;;;;;;;;5014030;28;20222;-66
2022/09/17 00:06:33;;;;;;;7.50;3.00;;;;;;;;;;5014216;28;20179;-66
2022/09/17 00:08:59;;;;;;;7.10;2.97;;;;;;;;;;5013303;28;20180;-67
2022/09/17 00:11:26;;;;;;;9.03;2.77;;;;;;;;;;5013882;28;20223;-66
2022/09/17 00:13:53;;;;;;;13.07;3.00;;;;;;;;;;5014163;28;20206;-66
2022/09/17 00:16:27;;;;;;;11.87;2.93;;;;;;;;;;5012581;28;20179;-66
2022/09/17 00:18:54;;;;;;;9.93;2.57;;;;;;;;;;5012547;28;20186;-66
2022/09/17 00:21:20;;;;;;;10.87;3.20;;;;;;;;;;5012504;28;20274;-68
2022/09/17 00:23:46;;;;;;;8.57;2.70;;;;;;;;;;5012419;28;20204;-66
2022/09/17 00:26:12;;;;;;;10.43;3.33;;;;;;;;;;5013698;28;20202;-66
2022/09/17 00:28:38;;;;;;;14.30;3.37;;;;;;;;;;5013710;28;20715;-66
2022/09/17 00:31:08;;;;;;;15.23;3.37;;;;;;;;;;5012330;28;20204;-66
2022/09/17 00:33:34;;;;;;;12.97;3.20;;;;;;;;;;5013601;28;20186;-66
2022/09/17 00:36:00;;;;;;;11.57;3.00;;;;;;;;;;5013572;28;20187;-66
2022/09/17 00:38:27;;;;;;;15.93;3.97;;;;;;;;;;5013475;28;20192;-66
2022/09/17 00:40:53;;;;;;;15.47;3.63;;;;;;;;;;5013525;28;20235;-66
2022/09/17 00:43:51;;;;;;;12.10;3.17;;;;;;;;;;5012268;28;20687;-66
2022/09/17 00:46:22;;;;;;;18.20;3.53;;;;;;;;;;4991177;28;20238;-66
2022/09/17 00:48:49;;;;;;;13.83;3.63;;;;;;;;;;5012250;28;20184;-66
2022/09/17 00:51:17;;;;;;;19.03;3.90;;;;;;;;;;5013265;28;20592;-66
2022/09/17 00:53:43;;;;;;;15.60;3.13;;;;;;;;;;5013733;28;20241;-66
2022/09/17 00:56:11;;;;;;;10.53;3.40;;;;;;;;;;5013702;28;20188;-66
2022/09/17 00:58:38;;;;;;;13.00;3.43;;;;;;;;;;5013189;28;20274;-66
2022/09/17 01:01:04;;;;;;;15.27;2.90;;;;;;;;;;5012108;28;20203;-66
2022/09/17 01:03:32;;;;;;;10.93;3.73;;;;;;;;;;5011936;28;20689;-66
2022/09/17 01:06:08;;;;;;;13.50;3.40;;;;;;;;;;5012096;28;20699;-66
2022/09/17 01:08:52;;;;;;;9.47;3.07;;;;;;;;;;5013392;28;20167;-66
2022/09/17 01:11:36;;;;;;;13.13;3.50;;;;;;;;;;5013676;28;20234;-65
2022/09/17 01:14:17;;;;;;;14.03;3.67;;;;;;;;;;5013651;28;20215;-68
2022/09/17 01:16:48;;;;;;;15.57;3.53;;;;;;;;;;5013421;28;20177;-65
2022/09/17 01:19:21;;;;;;;12.27;3.57;;;;;;;;;;5012004;28;20222;-66
2022/09/17 01:21:52;;;;;;;16.27;4.07;;;;;;;;;;5013311;28;20176;-66
2022/09/17 01:24:36;;;;;;;14.30;3.40;;;;;;;;;;5013188;28;20199;-66
2022/09/17 01:27:15;;;;;;;12.20;3.13;;;;;;;;;;5011906;28;20172;-66
2022/09/17 01:30:00;;;;;;;10.83;3.07;;;;;;;;;;5013391;28;20196;-66
2022/09/17 01:32:27;;;;;;;12.50;4.20;;;;;;;;;;5011999;28;20211;-65
2022/09/17 01:34:58;;;;;;;16.47;3.53;;;;;;;;;;5011949;28;20180;-66
2022/09/17 01:37:50;;;;;;;18.73;3.63;;;;;;;;;;5012051;28;20176;-65
2022/09/17 01:40:26;;;;;;;13.17;3.97;;;;;;;;;;5011754;28;20586;-66
2022/09/17 01:43:04;;;;;;;12.43;3.07;;;;;;;;;;5013853;28;20203;-65
2022/09/17 01:45:37;;;;;;;17.60;3.47;;;;;;;;;;5013879;28;20214;-65
2022/09/17 01:48:08;;;;;;;15.60;3.53;;;;;;;;;;5013636;28;20195;-66
2022/09/17 01:50:37;;;;;;;12.70;3.47;;;;;;;;;;5016274;28;20216;-65
2022/09/17 01:53:04;;;;;;;16.97;3.87;;;;;;;;;;5017156;28;20313;-66
2022/09/17 01:55:32;;;;;;;13.87;3.23;;;;;;;;;;5017038;28;20180;-66
2022/09/17 01:58:04;;;;;;;11.80;3.10;;;;;;;;;;5016522;28;20188;-65
2022/09/17 02:00:30;;;;;;;16.43;3.97;;;;;;;;;;5016437;28;20231;-66
2022/09/17 02:03:14;;;;;;;15.43;4.57;;;;;;;;;;5015220;28;20278;-66
2022/09/17 02:05:49;;;;;;;19.73;5.03;;;;;;;;;;5016442;28;20176;-65
2022/09/17 02:08:18;;;;;;;12.90;3.00;;;;;;;;;;5015105;28;20560;-66
2022/09/17 02:10:45;;;;;;;15.80;3.53;;;;;;;;;;5016740;28;20203;-66
2022/09/17 02:13:16;;;;;;;9.97;3.20;;;;;;;;;;5016747;28;20231;-66
2022/09/17 02:15:44;;;;;;;14.83;3.77;;;;;;;;;;5016154;28;20168;-66
2022/09/17 02:18:26;;;;;;;15.13;3.00;;;;;;;;;;5016192;28;20182;-65
2022/09/17 02:21:24;;;;;;;9.97;3.37;;;;;;;;;;5015917;28;20218;-65
2022/09/17 02:23:56;;;;;;;19.30;3.50;;;;;;;;;;4982634;28;20223;-65
2022/09/17 02:26:23;;;;;;;16.90;3.97;;;;;;;;;;5016193;28;20163;-65
2022/09/17 02:28:51;;;;;;;16.33;3.70;;;;;;;;;;5015907;28;20187;-65
2022/09/17 02:31:17;;;;;;;15.13;3.47;;;;;;;;;;5015928;28;20231;-65
2022/09/17 02:33:46;;;;;;;22.97;4.87;;;;;;;;;;5014470;28;20183;-65
2022/09/17 02:36:12;;;;;;;19.87;3.73;;;;;;;;;;5015817;28;20176;-65
2022/09/17 02:38:41;;;;;;;12.77;3.70;;;;;;;;;;5014398;28;20715;-66
2022/09/17 02:41:36;;;;;;;14.30;3.47;;;;;;;;;;5014236;28;20672;-66
2022/09/17 02:44:12;;;;;;;12.70;3.67;;;;;;;;;;5007246;28;20655;-66
2022/09/17 02:46:41;;;;;;;11.97;3.67;;;;;;;;;;5015589;28;20218;-65
2022/09/17 02:49:12;;;;;;;16.00;3.73;;;;;;;;;;5015516;28;20211;-66
2022/09/17 02:51:53;;;;;;;18.77;3.33;;;;;;;;;;5015257;28;20278;-66
2022/09/17 02:54:25;;;;;;;14.23;3.37;;;;;;;;;;5015613;28;20192;-66
2022/09/17 02:57:05;;;;;;;12.63;3.70;;;;;;;;;;5015766;28;20627;-66
2022/09/17 02:59:36;;;;;;;14.63;3.50;;;;;;;;;;5015734;28;20175;-65
2022/09/17 03:02:05;;;;;;;16.13;3.40;;;;;;;;;;5014400;28;20164;-65
2022/09/17 03:04:31;;;;;;;12.53;2.97;;;;;;;;;;5015010;28;20262;-65
2022/09/17 03:06:58;;;;;;;16.13;3.67;;;;;;;;;;5015125;28;20176;-66
2022/09/17 03:09:24;;;;;;;13.07;2.93;;;;;;;;;;5013876;28;20184;-66
2022/09/17 03:11:50;;;;;;;15.77;3.23;;;;;;;;;;5015077;28;20260;-66
2022/09/17 03:14:19;;;;;;;15.00;3.37;;;;;;;;;;5013793;28;20274;-66
2022/09/17 03:16:45;;;;;;;12.93;3.33;;;;;;;;;;5013738;28;20191;-66
2022/09/17 03:19:11;;;;;;;14.53;2.93;;;;;;;;;;5013749;28;20183;-66
2022/09/17 03:21:37;;;;;;;12.50;3.20;;;;;;;;;;5015047;28;20196;-66
2022/09/17 03:24:03;;;;;;;14.13;3.30;;;;;;;;;;5013499;28;20211;-66
2022/09/17 03:26:29;;;;;;;11.13;2.60;;;;;;;;;;5015157;28;20183;-66
2022/09/17 03:28:55;;;;;;;16.37;3.20;;;;;;;;;;5013579;28;20191;-66
2022/09/17 03:31:21;;;;;;;14.63;4.13;;;;;;;;;;5014773;28;20200;-66
2022/09/17 03:33:47;;;;;;;12.37;2.70;;;;;;;;;;5014814;28;20194;-66
2022/09/17 03:36:13;;;;;;;17.43;3.47;;;;;;;;;;5014904;28;20230;-66
2022/09/17 03:38:39;;;;;;;12.33;2.70;;;;;;;;;;5013496;28;20184;-66
2022/09/17 03:41:06;;;;;;;17.93;3.07;;;;;;;;;;5014610;28;20204;-66
2022/09/17 03:43:32;;;;;;;12.30;3.37;;;;;;;;;;5014592;28;20203;-66
2022/09/17 03:45:59;;;;;;;13.03;3.10;;;;;;;;;;5014767;28;20188;-66
2022/09/17 03:48:25;;;;;;;13.00;3.00;;;;;;;;;;5014843;28;20629;-65
2022/09/17 03:50:51;;;;;;;12.07;2.97;;;;;;;;;;5014218;28;20555;-66
2022/09/17 03:53:17;;;;;;;10.60;3.07;;;;;;;;;;5013438;28;20225;-66
2022/09/17 03:55:43;;;;;;;15.30;3.33;;;;;;;;;;5014376;28;20183;-66
2022/09/17 03:58:09;;;;;;;13.17;3.37;;;;;;;;;;5013127;28;20206;-66
2022/09/17 04:00:38;;;;;;;14.50;3.27;;;;;;;;;;5014191;28;20218;-66
2022/09/17 04:03:04;;;;;;;15.40;3.33;;;;;;;;;;5014184;28;20254;-66
2022/09/17 04:05:30;;;;;;;15.23;3.40;;;;;;;;;;5014501;28;20203;-66
2022/09/17 04:07:56;;;;;;;15.10;3.50;;;;;;;;;;5012854;28;20231;-66
2022/09/17 04:10:22;;;;;;;16.13;3.83;;;;;;;;;;5014109;28;20202;-66
2022/09/17 04:12:48;;;;;;;14.03;3.40;;;;;;;;;;5013993;28;20183;-67
2022/09/17 04:15:14;;;;;;;9.93;3.10;;;;;;;;;;5012670;28;20190;-66
2022/09/17 04:17:40;;;;;;;14.77;3.60;;;;;;;;;;5013893;28;20553;-66
2022/09/17 04:20:06;;;;;;;10.67;3.10;;;;;;;;;;5014242;28;20227;-66
2022/09/17 04:22:33;;;;;;;18.53;3.37;;;;;;;;;;5014054;28;20571;-66
2022/09/17 04:24:59;;;;;;;13.73;2.97;;;;;;;;;;5014118;28;20182;-66
2022/09/17 04:27:25;;;;;;;13.30;3.53;;;;;;;;;;5014071;28;20172;-66
2022/09/17 04:29:51;;;;;;;14.83;3.03;;;;;;;;;;5013766;28;20285;-66
2022/09/17 04:32:17;;;;;;;18.30;3.23;;;;;;;;;;5014069;28;20176;-66
2022/09/17 04:34:43;;;;;;;14.17;3.97;;;;;;;;;;5014547;28;20180;-66
2022/09/17 04:37:09;;;;;;;18.33;3.53;;;;;;;;;;5012397;28;20187;-66
2022/09/17 04:39:34;;;;;;;18.50;3.90;;;;;;;;;;5014205;28;20176;-66
2022/09/17 04:42:00;;;;;;;13.13;3.33;;;;;;;;;;5013730;28;20654;-68
2022/09/17 04:44:26;;;;;;;14.93;3.23;;;;;;;;;;5012346;28;20643;-66
2022/09/17 04:46:52;;;;;;;16.37;3.80;;;;;;;;;;5013634;28;20242;-66
2022/09/17 04:49:18;;;;;;;12.67;3.70;;;;;;;;;;5012344;28;20636;-66
2022/09/17 04:51:44;;;;;;;11.13;3.00;;;;;;;;;;5013450;28;20211;-66
2022/09/17 04:54:10;;;;;;;17.83;3.80;;;;;;;;;;5013812;28;20176;-66
2022/09/17 04:56:36;;;;;;;18.97;4.13;;;;;;;;;;5013556;28;20183;-67
2022/09/17 04:59:02;;;;;;;11.13;3.07;;;;;;;;;;5012117;28;20184;-65
2022/09/17 05:01:28;;;;;;;16.43;3.60;;;;;;;;;;5013247;28;20619;-66
2022/09/17 05:03:54;;;;;;;13.50;3.60;;;;;;;;;;5011975;28;20204;-66
2022/09/17 05:06:20;;;;;;;14.10;3.00;;;;;;;;;;5013359;28;20172;-65
2022/09/17 05:08:46;;;;;;;12.07;3.23;;;;;;;;;;5013326;28;20230;-65
2022/09/17 05:11:12;;;;;;;11.50;2.97;;;;;;;;;;5012039;28;20203;-66
2022/09/17 05:13:38;;;;;;;12.03;2.43;;;;;;;;;;5013333;28;20183;-66
2022/09/17 05:16:04;;;;;;;14.07;3.30;;;;;;;;;;5012046;28;20180;-65
2022/09/17 05:18:30;;;;;;;12.63;3.13;;;;;;;;;;5011938;28;20180;-66
2022/09/17 05:20:56;;;;;;;12.43;3.00;;;;;;;;;;5011928;28;20208;-66
2022/09/17 05:23:22;;;;;;;15.03;3.03;;;;;;;;;;5011781;28;20303;-66
2022/09/17 05:25:48;;;;;;;17.50;3.40;;;;;;;;;;5016979;28;20176;-65
2022/09/17 05:28:14;;;;;;;15.17;3.20;;;;;;;;;;5015969;28;20183;-66
2022/09/17 05:30:40;;;;;;;16.10;3.53;;;;;;;;;;5017087;28;20200;-66
2022/09/17 05:33:06;;;;;;;11.03;2.97;;;;;;;;;;5017065;28;20234;-66
2022/09/17 05:35:33;;;;;;;13.93;3.33;;;;;;;;;;5017111;28;20655;-66
2022/09/17 05:38:08;;;;;;;12.37;2.97;;;;;;;;;;5017017;28;20220;-66
2022/09/17 05:40:36;;;;;;;13.00;2.70;;;;;;;;;;5017173;28;20203;-67
2022/09/17 05:43:03;;;;;;;9.97;2.83;;;;;;;;;;5016858;28;20296;-67
2022/09/17 05:45:29;;;;;;;19.83;3.67;;;;;;;;;;5016722;28;20666;-66
2022/09/17 05:48:00;;;;;;;11.93;3.17;;;;;;;;;;5016013;28;20585;-66
2022/09/17 05:50:26;;;;;;;14.37;3.17;;;;;;;;;;5016728;28;20269;-66
2022/09/17 05:52:53;;;;;;;13.27;2.70;;;;;;;;;;5015464;28;20187;-66
2022/09/17 05:55:21;;;;;;;13.27;2.83;;;;;;;;;;5016762;28;20644;-66
2022/09/17 05:57:47;;;;;;;9.47;2.43;;;;;;;;;;5016846;28;20182;-66
2022/09/17 06:00:13;;;;;;;22.50;3.23;;;;;;;;;;5016497;28;20275;-66
2022/09/17 06:02:39;;;;;;;12.03;2.87;;;;;;;;;;5016435;28;20204;-66
2022/09/17 06:05:05;;;;;;;10.13;2.43;;;;;;;;;;5016658;28;20186;-66
2022/09/17 06:07:31;;;;;;;13.97;3.27;;;;;;;;;;5015115;28;20184;-66
2022/09/17 06:09:57;;;;;;;16.27;3.23;;;;;;;;;;5016557;28;20202;-66
2022/09/17 06:12:23;;;;;;;14.33;2.93;;;;;;;;;;5016779;28;20180;-66
2022/09/17 06:14:49;;;;;;;12.70;3.10;;;;;;;;;;5016349;28;20202;-67
2022/09/17 06:17:15;;;;;;;16.80;2.80;;;;;;;;;;5016328;28;20183;-67
2022/09/17 06:19:41;;;;;;;10.80;2.83;;;;;;;;;;5016411;28;20304;-65
2022/09/17 06:22:07;;;;;;;10.00;2.53;;;;;;;;;;5016237;28;20249;-66
2022/09/17 06:24:33;;;;;;;14.50;3.30;;;;;;;;;;5015972;28;20250;-66
2022/09/17 06:26:59;;;;;;;11.67;3.10;;;;;;;;;;5016079;28;20184;-68
2022/09/17 06:29:25;;;;;;;9.67;2.47;;;;;;;;;;5017297;28;20175;-65
2022/09/17 06:31:51;;;;;;;10.80;2.77;;;;;;;;;;5016512;28;20178;-66
2022/09/17 06:34:17;;;;;;;10.37;2.47;;;;;;;;;;5015850;28;20595;-66
2022/09/17 06:36:43;;;;;;;10.63;3.00;;;;;;;;;;5015654;28;20183;-66
2022/09/17 06:39:10;;;;;;;11.50;3.13;;;;;;;;;;5016071;28;20226;-66
2022/09/17 06:41:36;;;;;;;12.03;2.80;;;;;;;;;;5014761;28;20552;-66
2022/09/17 06:44:02;;;;;;;14.10;3.30;;;;;;;;;;5015928;28;20227;-66
2022/09/17 06:46:28;;;;;;;12.80;3.90;;;;;;;;;;5015732;28;20172;-66
2022/09/17 06:48:54;;;;;;;18.30;3.67;;;;;;;;;;5014336;28;20190;-67
2022/09/17 06:51:21;;;;;;;11.57;3.33;;;;;;;;;;5014088;28;20303;-66
2022/09/17 06:53:47;;;;;;;13.17;2.83;;;;;;;;;;5015508;28;20698;-66
2022/09/17 06:56:14;;;;;;;9.07;2.80;;;;;;;;;;5014204;28;20665;-66
2022/09/17 06:58:43;;;;;;;14.37;3.03;;;;;;;;;;5015587;28;20199;-66
2022/09/17 07:01:10;;;;;;;12.43;2.47;;;;;;;;;;5015681;28;20289;-66
2022/09/17 07:03:37;;;;;;;13.93;3.20;;;;;;;;;;5014103;28;20208;-67
2022/09/17 07:06:04;;;;;;;10.20;2.97;;;;;;;;;;5014199;28;20556;-66
2022/09/17 07:08:33;;;;;;;10.00;2.80;;;;;;;;;;5015528;28;20702;-66
2022/09/17 07:10:59;;;;;;;6.73;2.30;;;;;;;;;;5016249;28;20262;-66
2022/09/17 07:13:25;;;;;;;13.97;2.83;;;;;;;;;;5014861;28;20620;-66
2022/09/17 07:15:52;;;;;;;12.43;3.10;;;;;;;;;;5014248;28;20183;-66
2022/09/17 07:18:18;;;;;;;12.63;2.73;;;;;;;;;;5015763;28;20298;-66
2022/09/17 07:20:44;;;;;;;11.07;2.63;;;;;;;;;;5015354;28;20199;-66
2022/09/17 07:23:10;;;;;;;10.77;2.83;;;;;;;;;;5015613;28;20562;-66
2022/09/17 07:25:36;;;;;;;10.43;2.53;;;;;;;;;;5013804;28;20221;-66
2022/09/17 07:28:02;;;;;;;7.67;2.93;;;;;;;;;;5013749;28;20184;-66
2022/09/17 07:30:28;;;;;;;8.57;2.30;;;;;;;;;;5014902;28;20204;-66
2022/09/17 07:32:54;;;;;;;9.20;2.70;;;;;;;;;;5013775;28;20194;-66
2022/09/17 07:35:20;;;;;;;10.63;2.60;;;;;;;;;;5013722;28;20183;-66
2022/09/17 07:37:46;;;;;;;11.00;3.50;;;;;;;;;;5014942;28;20180;-66
2022/09/17 07:40:12;;;;;;;8.83;2.47;;;;;;;;;;5013546;28;20710;-66
2022/09/17 07:42:38;;;;;;;13.60;2.80;;;;;;;;;;5015015;28;20208;-66
2022/09/17 07:45:05;;;;;;;15.13;3.27;;;;;;;;;;5014821;28;20180;-66
2022/09/17 07:47:31;;;;;;;8.97;2.30;;;;;;;;;;5014416;28;20172;-66
2022/09/17 07:49:57;;;;;;;14.70;3.43;;;;;;;;;;5013408;28;20547;-67
2022/09/17 07:52:23;;;;;;;7.07;2.47;;;;;;;;;;5014887;28;20195;-67
2022/09/17 07:54:49;;;;;;;11.27;2.43;;;;;;;;;;5013370;28;20676;-67
2022/09/17 07:57:15;;;;;;;7.43;2.33;;;;;;;;;;5013348;28;20560;-67
2022/09/17 07:59:41;;;;;;;7.17;2.20;;;;;;;;;;5014605;28;20544;-66
2022/09/17 08:02:13;;;;;;;8.77;2.20;;;;;;;;;;5014265;28;20230;-66
2022/09/17 08:04:39;;;;;;;5.77;1.83;;;;;;;;;;5014220;28;20207;-66
2022/09/17 08:07:04;;;;;;;10.10;2.67;;;;;;;;;;5014118;28;20179;-66
2022/09/17 08:09:30;;;;;;;7.80;2.33;;;;;;;;;;5014064;28;20187;-67
2022/09/17 08:11:56;;;;;;;6.70;2.10;;;;;;;;;;5013161;28;20266;-66
2022/09/17 08:14:22;;;;;;;15.80;2.67;;;;;;;;;;5014254;28;20226;-66
2022/09/17 08:16:48;;;;;;;7.40;2.00;;;;;;;;;;5015091;28;20262;-66
2022/09/17 08:19:14;;;;;;;13.27;2.73;;;;;;;;;;5013152;28;20684;-65
2022/09/17 08:21:40;;;;;;;7.73;1.60;;;;;;;;;;5014410;28;20680;-66
2022/09/17 08:24:06;;;;;;;10.70;2.73;;;;;;;;;;5014922;28;20207;-66
2022/09/17 08:26:32;;;;;;;4.83;2.07;;;;;;;;;;5014573;28;20176;-65
2022/09/17 08:28:58;;;;;;;10.50;2.47;;;;;;;;;;5015734;28;20215;-66
2022/09/17 08:31:29;;;;;;;10.97;2.70;;;;;;;;;;5016747;28;20207;-66
2022/09/17 08:33:55;;;;;;;9.30;2.30;;;;;;;;;;5016524;28;20164;-66
2022/09/17 08:36:25;;;;;;;9.10;2.57;;;;;;;;;;5015210;28;20190;-66
2022/09/17 08:38:54;;;;;;;10.37;2.30;;;;;;;;;;5013081;28;20652;-66
2022/09/17 08:41:26;;;;;;;5.97;2.00;;;;;;;;;;5014002;28;20199;-66
2022/09/17 08:44:07;;;;;;;13.03;2.70;;;;;;;;;;5013724;28;20207;-67
2022/09/17 08:46:42;;;;;;;5.83;1.80;;;;;;;;;;5014315;28;20168;-66
2022/09/17 08:49:24;;;;;;;10.30;2.13;;;;;;;;;;5012696;28;20187;-66
2022/09/17 08:51:52;;;;;;;5.27;1.70;;;;;;;;;;5013417;28;20204;-67
2022/09/17 08:54:27;;;;;;;4.97;1.70;;;;;;;;;;5014086;28;20176;-67
2022/09/17 08:57:03;;;;;;;8.60;2.47;;;;;;;;;;5012669;28;20262;-66
2022/09/17 08:59:38;;;;;;;5.80;2.10;;;;;;;;;;5013653;28;20218;-66
2022/09/17 09:02:13;;;;;;;5.17;1.83;;;;;;;;;;5013771;28;20250;-66
2022/09/17 09:04:54;;;;;;;8.93;2.30;;;;;;;;;;5013479;28;20210;-68
2022/09/17 09:07:24;;;;;;;6.00;1.90;;;;;;;;;;5012161;28;20180;-67
2022/09/17 09:10:04;;;;;;;8.83;2.37;;;;;;;;;;5013985;28;20721;-68
2022/09/17 09:12:33;;;;;;;5.70;2.40;;;;;;;;;;5012137;28;20172;-67
2022/09/17 09:15:00;;;;;;;8.03;2.20;;;;;;;;;;5013878;28;20180;-67
2022/09/17 09:17:33;;;;;;;6.07;1.67;;;;;;;;;;5013571;28;20183;-67
2022/09/17 09:19:59;;;;;;;4.17;1.63;;;;;;;;;;5018394;28;20219;-67
2022/09/17 09:22:55;;;;;;;3.83;1.70;;;;;;;;;;5015224;28;20176;-67
2022/09/17 09:25:25;;;;;;;6.83;1.70;;;;;;;;;;5004637;28;20660;-68
2022/09/17 09:28:06;;;;;;;3.53;1.60;;;;;;;;;;5013199;28;20211;-67
2022/09/17 09:30:50;;;;;;;5.37;1.87;;;;;;;;;;5013410;28;20202;-68
2022/09/17 09:33:18;;;;;;;9.47;2.87;;;;;;;;;;5012146;28;20715;-68
2022/09/17 09:35:44;;;;;;;6.30;2.20;;;;;;;;;;5013227;28;20180;-67
2022/09/17 09:38:13;;;;;;;4.90;1.97;;;;;;;;;;5012057;28;20617;-67
2022/09/17 09:40:48;;;;;;;6.07;1.80;;;;;;;;;;5013289;28;20196;-67
2022/09/17 09:43:21;;;;;;;8.10;1.77;;;;;;;;;;5013366;28;20739;-67
2022/09/17 09:45:53;;;;;;;5.60;1.67;;;;;;;;;;5013064;28;20192;-67
2022/09/17 09:48:25;;;;;;;3.63;1.70;;;;;;;;;;5011760;28;20179;-67
2022/09/17 09:51:10;;;;;;;8.57;1.90;;;;;;;;;;5012788;28;20223;-68
2022/09/17 09:53:39;;;;;;;7.00;1.90;;;;;;;;;;5012977;28;20212;-67
2022/09/17 09:56:08;;;;;;;7.63;2.20;;;;;;;;;;5012920;28;20176;-68
2022/09/17 09:58:35;;;;;;;7.47;2.20;;;;;;;;;;5011651;28;20180;-68
2022/09/17 10:01:02;;;;;;;7.07;2.23;;;;;;;;;;5013055;28;20200;-68
2022/09/17 10:03:32;;;;;;;7.00;3.00;;;;;;;;;;5013149;28;20207;-68
2022/09/17 10:05:59;;;;;;;22.83;20.63;;;;;;;;;;5011710;28;20168;-68
2022/09/17 10:08:26;;;;;;;9.27;5.93;;;;;;;;;;5011673;28;20270;-68
2022/09/17 10:11:02;;;;;;;8.97;2.20;;;;;;;;;;5015002;28;20196;-66
2022/09/17 10:13:30;;;;;;;8.40;2.33;;;;;;;;;;5015088;28;20187;-66
2022/09/17 10:15:56;;;;;;;8.97;4.87;;;;;;;;;;5015003;28;20191;-67
2022/09/17 10:18:23;;;;;;;14.23;10.20;;;;;;;;;;5016421;28;20199;-67
2022/09/17 10:20:49;;;;;;;11.00;4.87;;;;;;;;;;5014764;28;20211;-67
2022/09/17 10:23:15;;;;;;;108.30;83.60;;;;;;;;;;5016097;28;20204;-67
2022/09/17 10:25:44;;;;;;;16.10;8.63;;;;;;;;;;5014898;28;20183;-67
2022/09/17 10:28:22;;;;;;;12.87;7.13;;;;;;;;;;5016273;28;20315;-68
2022/09/17 10:30:56;;;;;;;8.63;2.57;;;;;;;;;;5014637;28;20203;-68
2022/09/17 10:33:24;;;;;;;8.87;2.07;;;;;;;;;;5014741;28;20245;-68
2022/09/17 10:35:55;;;;;;;7.90;2.50;;;;;;;;;;5015928;28;20187;-67
2022/09/17 10:38:27;;;;;;;10.07;1.97;;;;;;;;;;5016231;28;20180;-67
2022/09/17 10:40:53;;;;;;;11.00;4.83;;;;;;;;;;5015745;28;20204;-67
2022/09/17 10:43:21;;;;;;;4.90;1.80;;;;;;;;;;5015645;28;20214;-67
2022/09/17 10:45:55;;;;;;;5.40;1.83;;;;;;;;;;5015754;28;20242;-67
2022/09/17 10:48:22;;;;;;;14.80;7.37;;;;;;;;;;5014488;28;20234;-67
2022/09/17 10:50:49;;;;;;;16.67;10.30;;;;;;;;;;5015465;28;20215;-67
2022/09/17 10:53:16;;;;;;;10.63;7.27;;;;;;;;;;5015886;28;20222;-67
2022/09/17 10:55:48;;;;;;;7.63;3.60;;;;;;;;;;5015780;28;20234;-67
2022/09/17 10:58:22;;;;;;;4.63;1.83;;;;;;;;;;5014252;28;20184;-67
2022/09/17 11:00:54;;;;;;;3.67;1.40;;;;;;;;;;5015423;28;20208;-66
2022/09/17 11:03:39;;;;;;;3.77;1.53;;;;;;;;;;5014100;28;20278;-66
2022/09/17 11:06:20;;;;;;;4.07;1.37;;;;;;;;;;5015408;28;20667;-67
2022/09/17 11:08:45;;;;;;;27.10;17.97;;;;;;;;;;5015551;28;20175;-67
2022/09/17 11:11:23;;;;;;;3.40;1.40;;;;;;;;;;5013944;28;20214;-67
2022/09/17 11:13:58;;;;;;;3.23;1.13;;;;;;;;;;5015563;28;20179;-67
2022/09/17 11:16:34;;;;;;;3.93;1.20;;;;;;;;;;5013858;28;20187;-67
2022/09/17 11:19:18;;;;;;;2.53;1.30;;;;;;;;;;5015231;28;20168;-67
2022/09/17 11:21:54;;;;;;;3.33;0.80;;;;;;;;;;5013954;28;20261;-67
2022/09/17 11:24:26;;;;;;;2.03;0.97;;;;;;;;;;5014953;28;20667;-67
2022/09/17 11:26:55;;;;;;;2.53;1.17;;;;;;;;;;5015002;28;20172;-67
2022/09/17 11:29:25;;;;;;;2.13;1.00;;;;;;;;;;5013593;28;20180;-67
2022/09/17 11:31:54;;;;;;;0.70;0.70;;;;;;;;;;5013580;28;20190;-67
2022/09/17 11:34:26;;;;;;;1.53;1.20;;;;;;;;;;5013515;28;20195;-68
2022/09/17 11:37:04;;;;;;;5.53;1.00;;;;;;;;;;5014876;28;20184;-68
2022/09/17 11:39:43;;;;;;;2.50;1.23;;;;;;;;;;5014685;28;20255;-67
2022/09/17 11:42:13;;;;;;;1.07;0.90;;;;;;;;;;5015119;28;20172;-67
2022/09/17 11:44:45;;;;;;;1.27;0.90;;;;;;;;;;5015081;28;20261;-67
2022/09/17 11:47:13;;;;;;;2.13;1.00;;;;;;;;;;5013568;28;20275;-67
2022/09/17 11:49:58;;;;;;;2.43;1.07;;;;;;;;;;5012983;28;20271;-67
2022/09/17 11:52:29;;;;;;;2.93;1.20;;;;;;;;;;5014532;28;20179;-68
2022/09/17 11:54:58;;;;;;;2.60;1.27;;;;;;;;;;5014471;28;20196;-67
2022/09/17 11:57:31;;;;;;;1.90;1.23;;;;;;;;;;5014962;28;20227;-68
2022/09/17 11:59:57;;;;;;;5.67;3.33;;;;;;;;;;5014329;28;20286;-67
2022/09/17 12:02:40;;;;;;;14.90;9.90;;;;;;;;;;5014856;28;20203;-67
2022/09/17 12:05:09;;;;;;;12.23;5.13;;;;;;;;;;5013140;28;20222;-67
2022/09/17 12:07:40;;;;;;;3.87;2.50;;;;;;;;;;5014380;28;20172;-67
2022/09/17 12:10:06;;;;;;;5.23;1.33;;;;;;;;;;5012844;28;20250;-68
2022/09/17 12:12:32;;;;;;;6.13;2.60;;;;;;;;;;5013980;28;20544;-68
2022/09/17 12:15:14;;;;;;;4.17;2.00;;;;;;;;;;5013035;28;20187;-68
2022/09/17 12:17:58;;;;;;;6.93;3.03;;;;;;;;;;5012789;28;20262;-68
2022/09/17 12:20:28;;;;;;;4.63;2.40;;;;;;;;;;5014114;28;20202;-68
2022/09/17 12:22:54;;;;;;;2.43;1.30;;;;;;;;;;5014327;28;20653;-69
2022/09/17 12:25:21;;;;;;;3.17;1.17;;;;;;;;;;5014225;28;20179;-68
2022/09/17 12:28:03;;;;;;;3.10;1.80;;;;;;;;;;5013904;28;20203;-68
2022/09/17 12:30:31;;;;;;;2.73;1.63;;;;;;;;;;5012573;28;20208;-67
2022/09/17 12:33:04;;;;;;;2.53;1.67;;;;;;;;;;5013645;28;20184;-67
2022/09/17 12:35:48;;;;;;;4.63;1.20;;;;;;;;;;5013818;28;20571;-67
2022/09/17 12:38:20;;;;;;;3.80;1.20;;;;;;;;;;5014125;28;20180;-67
2022/09/17 12:40:52;;;;;;;3.23;1.33;;;;;;;;;;5013706;28;20672;-67
2022/09/17 12:43:36;;;;;;;2.57;1.30;;;;;;;;;;5013893;28;20211;-67
2022/09/17 12:46:05;;;;;;;2.47;1.30;;;;;;;;;;5013911;28;20171;-67
2022/09/17 12:48:34;;;;;;;5.63;1.30;;;;;;;;;;5014027;28;20172;-67
2022/09/17 12:51:18;;;;;;;2.53;1.27;;;;;;;;;;5013762;28;20269;-67
2022/09/17 12:53:47;;;;;;;4.87;1.50;;;;;;;;;;5012157;28;20183;-67
2022/09/17 12:56:13;;;;;;;4.03;1.50;;;;;;;;;;5013655;28;20184;-67
2022/09/17 12:58:48;;;;;;;6.30;1.57;;;;;;;;;;5013386;28;20648;-68
2022/09/17 13:01:22;;;;;;;3.57;1.40;;;;;;;;;;5012081;28;20622;-68
2022/09/17 13:04:06;;;;;;;4.03;1.50;;;;;;;;;;5013277;28;20238;-68
2022/09/17 13:06:51;;;;;;;3.00;1.30;;;;;;;;;;5013558;28;20168;-68
2022/09/17 13:09:22;;;;;;;3.20;1.30;;;;;;;;;;5012225;28;20186;-68
2022/09/17 13:11:54;;;;;;;5.87;2.07;;;;;;;;;;5036210;23;20578;-67
2022/09/17 13:14:39;;;;;;;3.73;1.60;;;;;;;;;;5013506;28;20184;-67
2022/09/17 13:17:09;;;;;;;3.80;1.77;;;;;;;;;;5013502;28;20558;-66
2022/09/17 13:19:51;;;;;;;4.23;1.30;;;;;;;;;;5012253;28;20222;-67
2022/09/17 13:22:18;;;;;;;8.23;2.00;;;;;;;;;;5012348;28;20587;-67
2022/09/17 13:24:47;;;;;;;3.60;1.77;;;;;;;;;;5013640;28;20246;-67
2022/09/17 13:27:21;;;;;;;3.67;1.47;;;;;;;;;;5013644;28;20191;-67
2022/09/17 13:29:53;;;;;;;5.27;1.77;;;;;;;;;;5013383;28;20183;-67
2022/09/17 13:32:34;;;;;;;5.83;2.03;;;;;;;;;;5012068;28;20202;-67
2022/09/17 13:35:08;;;;;;;6.70;1.97;;;;;;;;;;5013694;28;20231;-67
2022/09/17 13:37:35;;;;;;;5.67;2.50;;;;;;;;;;5013405;28;20183;-69
2022/09/17 13:40:02;;;;;;;3.33;1.50;;;;;;;;;;5013399;28;20175;-69
2022/09/17 13:42:28;;;;;;;4.07;1.80;;;;;;;;;;5013552;28;20219;-68
2022/09/17 13:45:15;;;;;;;6.90;1.90;;;;;;;;;;5012825;28;20195;-68
2022/09/17 13:47:50;;;;;;;6.37;2.40;;;;;;;;;;5016072;28;20183;-68
2022/09/17 13:50:27;;;;;;;9.23;3.93;;;;;;;;;;5017375;28;20166;-68
2022/09/17 13:52:54;;;;;;;10.00;4.90;;;;;;;;;;5017738;28;20168;-67
2022/09/17 13:55:37;;;;;;;8.00;2.40;;;;;;;;;;5018507;28;20180;-64
2022/09/17 13:58:07;;;;;;;40.20;28.43;;;;;;;;;;5015844;28;20192;-64
2022/09/17 14:00:53;;;;;;;37.13;21.73;;;;;;;;;;5016856;28;20191;-64
2022/09/17 14:03:33;;;;;;;28.73;20.00;;;;;;;;;;5016798;28;20199;-64
2022/09/17 14:06:04;;;;;;;18.33;10.97;;;;;;;;;;5017160;28;20163;-64
2022/09/17 14:08:30;;;;;;;5.53;3.00;;;;;;;;;;5016648;28;20176;-64
2022/09/17 14:10:58;;;;;;;6.23;2.77;;;;;;;;;;5016748;28;20218;-64
2022/09/17 14:13:26;;;;;;;7.47;2.70;;;;;;;;;;5016845;28;20261;-64
2022/09/17 14:16:00;;;;;;;8.07;2.73;;;;;;;;;;5015184;28;20222;-64
2022/09/17 14:18:26;;;;;;;7.90;2.50;;;;;;;;;;5017114;28;20535;-63
2022/09/17 14:21:07;;;;;;;7.53;2.33;;;;;;;;;;5016409;28;20199;-64
2022/09/17 14:23:34;;;;;;;8.43;2.10;;;;;;;;;;5015046;28;20203;-64
2022/09/17 14:26:02;;;;;;;10.70;2.23;;;;;;;;;;5016325;28;20183;-62
2022/09/17 14:28:31;;;;;;;10.27;2.20;;;;;;;;;;5016569;28;20187;-63
2022/09/17 14:30:57;;;;;;;6.07;1.83;;;;;;;;;;5016108;28;20203;-63
2022/09/17 14:33:26;;;;;;;5.10;1.73;;;;;;;;;;5014886;28;20660;-63
2022/09/17 14:35:56;;;;;;;4.43;2.07;;;;;;;;;;5014895;28;20229;-63
2022/09/17 14:38:24;;;;;;;7.97;2.23;;;;;;;;;;5016234;28;20180;-63
2022/09/17 14:40:58;;;;;;;4.90;2.03;;;;;;;;;;5016326;28;20611;-64
2022/09/17 14:43:44;;;;;;;6.40;1.80;;;;;;;;;;5016856;28;20291;-64
2022/09/17 14:46:15;;;;;;;6.63;2.20;;;;;;;;;;5008635;28;20656;-64
2022/09/17 14:48:41;;;;;;;8.03;2.10;;;;;;;;;;5016542;28;20156;-64
2022/09/17 14:51:19;;;;;;;5.77;2.23;;;;;;;;;;5015918;28;20257;-64
2022/09/17 14:53:45;;;;;;;4.90;1.67;;;;;;;;;;5016021;28;20211;-65